sensor_id;sensor_type;location;lat;lon;timestamp;P1;durP1;ratioP1;P2;durP2;ratioP2
14892;SDS011;7538;53.626;9.906;2023-12-14T00:01:38;4.17;;;2.40;;
14892;SDS011;7538;53.626;9.906;2023-12-14T00:04:06;3.60;;;2.50;;
14892;SDS011;7538;53.626;9.906;2023-12-14T00:06:34;4.13;;;2.50;;
14892;SDS011;7538;53.626;9.906;2023-12-14T00:09:01;6.10;;;2.33;;
14892;SDS011;7538;53.626;9.906;2023-12-14T00:11:28;4.27;;;2.13;;
14892;SDS011;7538;53.626;9.906;2023-12-14T00:13:54;5.13;;;2.50;;
14892;SDS011;7538;53.626;9.906;2023-12-14T00:16:21;3.93;;;2.40;;
14892;SDS011;7538;53.626;9.906;2023-12-14T00:18:48;4.70;;;2.37;;
14892;SDS011;7538;53.626;9.906;2023-12-14T00:21:15;5.13;;;2.40;;
14892;SDS011;7538;53.626;9.906;2023-12-14T00:23:43;5.70;;;2.47;;
14892;SDS011;7538;53.626;9.906;2023-12-14T00:26:10;3.17;;;1.90;;
14892;SDS011;7538;53.626;9.906;2023-12-14T00:28:37;5.43;;;2.60;;
14892;SDS011;7538;53.626;9.906;2023-12-14T00:31:04;3.60;;;2.33;;
14892;SDS011;7538;53.626;9.906;2023-12-14T00:33:31;4.07;;;2.40;;
14892;SDS011;7538;53.626;9.906;2023-12-14T00:35:58;3.33;;;2.00;;
14892;SDS011;7538;53.626;9.906;2023-12-14T00:38:25;2.87;;;2.20;;
14892;SDS011;7538;53.626;9.906;2023-12-14T00:40:53;5.83;;;2.17;;
14892;SDS011;7538;53.626;9.906;2023-12-14T00:43:19;3.87;;;2.20;;
14892;SDS011;7538;53.626;9.906;2023-12-14T00:45:46;5.40;;;2.13;;
14892;SDS011;7538;53.626;9.906;2023-12-14T00:48:13;2.60;;;2.07;;
14892;SDS011;7538;53.626;9.906;2023-12-14T00:50:40;3.10;;;1.70;;
14892;SDS011;7538;53.626;9.906;2023-12-14T00:53:07;3.90;;;1.83;;
14892;SDS011;7538;53.626;9.906;2023-12-14T00:55:33;4.77;;;2.10;;
14892;SDS011;7538;53.626;9.906;2023-12-14T00:58:01;1.90;;;1.70;;
14892;SDS011;7538;53.626;9.906;2023-12-14T01:00:28;2.60;;;1.70;;
14892;SDS011;7538;53.626;9.906;2023-12-14T01:02:56;3.90;;;1.80;;
14892;SDS011;7538;53.626;9.906;2023-12-14T01:05:22;3.50;;;2.00;;
14892;SDS011;7538;53.626;9.906;2023-12-14T01:07:49;2.80;;;1.97;;
14892;SDS011;7538;53.626;9.906;2023-12-14T01:10:16;3.83;;;1.73;;
14892;SDS011;7538;53.626;9.906;2023-12-14T01:12:43;2.87;;;1.87;;
14892;SDS011;7538;53.626;9.906;2023-12-14T01:15:11;4.03;;;2.00;;
14892;SDS011;7538;53.626;9.906;2023-12-14T01:17:38;3.70;;;1.70;;
14892;SDS011;7538;53.626;9.906;2023-12-14T01:20:05;3.63;;;2.10;;
14892;SDS011;7538;53.626;9.906;2023-12-14T01:22:32;4.20;;;2.20;;
14892;SDS011;7538;53.626;9.906;2023-12-14T01:24:59;3.57;;;2.10;;
14892;SDS011;7538;53.626;9.906;2023-12-14T01:27:26;2.87;;;1.83;;
14892;SDS011;7538;53.626;9.906;2023-12-14T01:29:53;3.93;;;2.00;;
14892;SDS011;7538;53.626;9.906;2023-12-14T01:32:21;2.03;;;1.67;;
14892;SDS011;7538;53.626;9.906;2023-12-14T01:34:48;4.37;;;2.37;;
14892;SDS011;7538;53.626;9.906;2023-12-14T01:37:14;3.53;;;1.90;;
14892;SDS011;7538;53.626;9.906;2023-12-14T01:39:41;4.03;;;1.93;;
14892;SDS011;7538;53.626;9.906;2023-12-14T01:42:08;6.40;;;2.43;;
14892;SDS011;7538;53.626;9.906;2023-12-14T01:44:35;5.10;;;2.17;;
14892;SDS011;7538;53.626;9.906;2023-12-14T01:47:02;5.37;;;1.90;;
14892;SDS011;7538;53.626;9.906;2023-12-14T01:49:30;3.90;;;1.80;;
14892;SDS011;7538;53.626;9.906;2023-12-14T01:51:57;3.53;;;1.80;;
14892;SDS011;7538;53.626;9.906;2023-12-14T01:54:23;3.97;;;2.10;;
14892;SDS011;7538;53.626;9.906;2023-12-14T01:56:50;2.80;;;1.70;;
14892;SDS011;7538;53.626;9.906;2023-12-14T01:59:18;4.63;;;2.53;;
14892;SDS011;7538;53.626;9.906;2023-12-14T02:01:46;5.10;;;2.30;;
14892;SDS011;7538;53.626;9.906;2023-12-14T02:04:18;4.70;;;2.20;;
14892;SDS011;7538;53.626;9.906;2023-12-14T02:06:46;2.27;;;1.70;;
14892;SDS011;7538;53.626;9.906;2023-12-14T02:09:13;2.90;;;1.80;;
14892;SDS011;7538;53.626;9.906;2023-12-14T02:11:40;4.23;;;1.63;;
14892;SDS011;7538;53.626;9.906;2023-12-14T02:14:08;1.80;;;1.70;;
14892;SDS011;7538;53.626;9.906;2023-12-14T02:16:36;4.47;;;2.20;;
14892;SDS011;7538;53.626;9.906;2023-12-14T02:19:03;4.97;;;2.23;;
14892;SDS011;7538;53.626;9.906;2023-12-14T02:21:30;6.50;;;1.97;;
14892;SDS011;7538;53.626;9.906;2023-12-14T02:23:58;3.50;;;1.80;;
14892;SDS011;7538;53.626;9.906;2023-12-14T02:26:25;3.80;;;2.10;;
14892;SDS011;7538;53.626;9.906;2023-12-14T02:28:52;5.53;;;2.00;;
14892;SDS011;7538;53.626;9.906;2023-12-14T02:31:19;4.30;;;2.40;;
14892;SDS011;7538;53.626;9.906;2023-12-14T02:33:46;4.83;;;2.40;;
14892;SDS011;7538;53.626;9.906;2023-12-14T02:36:13;4.17;;;2.20;;
14892;SDS011;7538;53.626;9.906;2023-12-14T02:38:39;3.63;;;2.20;;
14892;SDS011;7538;53.626;9.906;2023-12-14T02:41:07;4.07;;;2.47;;
14892;SDS011;7538;53.626;9.906;2023-12-14T02:43:36;5.07;;;2.23;;
14892;SDS011;7538;53.626;9.906;2023-12-14T02:46:03;3.27;;;2.27;;
14892;SDS011;7538;53.626;9.906;2023-12-14T02:48:30;6.00;;;2.10;;
14892;SDS011;7538;53.626;9.906;2023-12-14T02:50:56;3.50;;;2.57;;
14892;SDS011;7538;53.626;9.906;2023-12-14T02:53:24;3.27;;;2.10;;
14892;SDS011;7538;53.626;9.906;2023-12-14T02:55:51;5.70;;;2.27;;
14892;SDS011;7538;53.626;9.906;2023-12-14T02:58:19;5.40;;;2.03;;
14892;SDS011;7538;53.626;9.906;2023-12-14T03:00:46;4.50;;;2.27;;
14892;SDS011;7538;53.626;9.906;2023-12-14T03:03:13;5.40;;;2.50;;
14892;SDS011;7538;53.626;9.906;2023-12-14T03:05:40;5.50;;;1.90;;
14892;SDS011;7538;53.626;9.906;2023-12-14T03:08:06;5.43;;;2.37;;
14892;SDS011;7538;53.626;9.906;2023-12-14T03:10:33;2.33;;;2.00;;
14892;SDS011;7538;53.626;9.906;2023-12-14T03:13:00;5.50;;;2.10;;
14892;SDS011;7538;53.626;9.906;2023-12-14T03:15:28;4.93;;;2.30;;
14892;SDS011;7538;53.626;9.906;2023-12-14T03:17:55;4.87;;;2.10;;
14892;SDS011;7538;53.626;9.906;2023-12-14T03:20:22;5.60;;;2.37;;
14892;SDS011;7538;53.626;9.906;2023-12-14T03:22:48;3.40;;;2.17;;
14892;SDS011;7538;53.626;9.906;2023-12-14T03:25:15;4.13;;;2.23;;
14892;SDS011;7538;53.626;9.906;2023-12-14T03:27:42;3.63;;;2.07;;
14892;SDS011;7538;53.626;9.906;2023-12-14T03:30:09;3.83;;;1.77;;
14892;SDS011;7538;53.626;9.906;2023-12-14T03:32:38;7.57;;;2.67;;
14892;SDS011;7538;53.626;9.906;2023-12-14T03:35:05;8.63;;;2.90;;
14892;SDS011;7538;53.626;9.906;2023-12-14T03:37:33;4.53;;;2.00;;
14892;SDS011;7538;53.626;9.906;2023-12-14T03:39:59;9.53;;;2.60;;
14892;SDS011;7538;53.626;9.906;2023-12-14T03:42:26;3.70;;;1.90;;
14892;SDS011;7538;53.626;9.906;2023-12-14T03:44:52;4.90;;;2.30;;
14892;SDS011;7538;53.626;9.906;2023-12-14T03:47:19;4.27;;;2.00;;
14892;SDS011;7538;53.626;9.906;2023-12-14T03:49:47;4.93;;;2.00;;
14892;SDS011;7538;53.626;9.906;2023-12-14T03:52:15;6.27;;;2.53;;
14892;SDS011;7538;53.626;9.906;2023-12-14T03:54:42;6.43;;;2.20;;
14892;SDS011;7538;53.626;9.906;2023-12-14T03:57:08;3.20;;;2.57;;
14892;SDS011;7538;53.626;9.906;2023-12-14T03:59:38;3.73;;;2.03;;
14892;SDS011;7538;53.626;9.906;2023-12-14T04:02:05;6.67;;;2.97;;
14892;SDS011;7538;53.626;9.906;2023-12-14T04:04:32;4.97;;;2.33;;
14892;SDS011;7538;53.626;9.906;2023-12-14T04:07:00;4.10;;;2.23;;
14892;SDS011;7538;53.626;9.906;2023-12-14T04:09:27;3.50;;;2.20;;
14892;SDS011;7538;53.626;9.906;2023-12-14T04:11:53;5.33;;;2.57;;
14892;SDS011;7538;53.626;9.906;2023-12-14T04:14:20;5.20;;;2.60;;
14892;SDS011;7538;53.626;9.906;2023-12-14T04:16:47;4.47;;;2.43;;
14892;SDS011;7538;53.626;9.906;2023-12-14T04:19:14;3.40;;;1.97;;
14892;SDS011;7538;53.626;9.906;2023-12-14T04:21:40;5.37;;;2.40;;
14892;SDS011;7538;53.626;9.906;2023-12-14T04:24:08;4.90;;;2.50;;
14892;SDS011;7538;53.626;9.906;2023-12-14T04:26:37;5.27;;;2.23;;
14892;SDS011;7538;53.626;9.906;2023-12-14T04:29:04;3.70;;;2.73;;
14892;SDS011;7538;53.626;9.906;2023-12-14T04:31:32;4.27;;;2.53;;
14892;SDS011;7538;53.626;9.906;2023-12-14T04:33:59;3.63;;;2.40;;
14892;SDS011;7538;53.626;9.906;2023-12-14T04:36:26;4.70;;;2.83;;
14892;SDS011;7538;53.626;9.906;2023-12-14T04:38:53;3.70;;;2.43;;
14892;SDS011;7538;53.626;9.906;2023-12-14T04:41:21;3.90;;;2.73;;
14892;SDS011;7538;53.626;9.906;2023-12-14T04:43:48;6.00;;;3.10;;
14892;SDS011;7538;53.626;9.906;2023-12-14T04:46:15;5.03;;;3.10;;
14892;SDS011;7538;53.626;9.906;2023-12-14T04:48:41;5.17;;;3.30;;
14892;SDS011;7538;53.626;9.906;2023-12-14T04:51:10;5.70;;;3.27;;
14892;SDS011;7538;53.626;9.906;2023-12-14T04:53:38;6.33;;;3.20;;
14892;SDS011;7538;53.626;9.906;2023-12-14T04:56:05;8.93;;;3.90;;
14892;SDS011;7538;53.626;9.906;2023-12-14T04:58:37;6.70;;;3.43;;
14892;SDS011;7538;53.626;9.906;2023-12-14T05:01:05;3.77;;;2.80;;
14892;SDS011;7538;53.626;9.906;2023-12-14T05:03:32;5.50;;;3.00;;
14892;SDS011;7538;53.626;9.906;2023-12-14T05:05:59;4.17;;;3.10;;
14892;SDS011;7538;53.626;9.906;2023-12-14T05:08:26;5.00;;;3.03;;
14892;SDS011;7538;53.626;9.906;2023-12-14T05:10:53;5.00;;;3.13;;
14892;SDS011;7538;53.626;9.906;2023-12-14T05:13:19;7.20;;;3.70;;
14892;SDS011;7538;53.626;9.906;2023-12-14T05:15:47;6.23;;;4.00;;
14892;SDS011;7538;53.626;9.906;2023-12-14T05:18:14;6.57;;;4.40;;
14892;SDS011;7538;53.626;9.906;2023-12-14T05:20:41;8.07;;;4.53;;
14892;SDS011;7538;53.626;9.906;2023-12-14T05:23:08;6.57;;;3.77;;
14892;SDS011;7538;53.626;9.906;2023-12-14T05:25:34;7.40;;;4.47;;
14892;SDS011;7538;53.626;9.906;2023-12-14T05:28:01;7.83;;;4.30;;
14892;SDS011;7538;53.626;9.906;2023-12-14T05:30:28;6.67;;;4.87;;
14892;SDS011;7538;53.626;9.906;2023-12-14T05:32:56;6.73;;;4.33;;
14892;SDS011;7538;53.626;9.906;2023-12-14T05:35:23;6.03;;;4.53;;
14892;SDS011;7538;53.626;9.906;2023-12-14T05:37:50;9.70;;;3.93;;
14892;SDS011;7538;53.626;9.906;2023-12-14T05:40:17;6.53;;;4.20;;
14892;SDS011;7538;53.626;9.906;2023-12-14T05:42:44;5.63;;;3.87;;
14892;SDS011;7538;53.626;9.906;2023-12-14T05:45:10;10.40;;;4.30;;
14892;SDS011;7538;53.626;9.906;2023-12-14T05:47:37;7.67;;;4.43;;
14892;SDS011;7538;53.626;9.906;2023-12-14T05:50:08;7.53;;;3.83;;
14892;SDS011;7538;53.626;9.906;2023-12-14T05:52:35;5.63;;;4.47;;
14892;SDS011;7538;53.626;9.906;2023-12-14T05:55:02;6.93;;;3.67;;
14892;SDS011;7538;53.626;9.906;2023-12-14T05:57:29;6.77;;;4.40;;
14892;SDS011;7538;53.626;9.906;2023-12-14T05:59:56;5.70;;;4.23;;
14892;SDS011;7538;53.626;9.906;2023-12-14T06:02:23;8.67;;;4.60;;
14892;SDS011;7538;53.626;9.906;2023-12-14T06:04:49;9.87;;;5.20;;
14892;SDS011;7538;53.626;9.906;2023-12-14T06:07:18;7.77;;;3.93;;
14892;SDS011;7538;53.626;9.906;2023-12-14T06:09:44;7.80;;;4.60;;
14892;SDS011;7538;53.626;9.906;2023-12-14T06:12:11;6.30;;;4.20;;
14892;SDS011;7538;53.626;9.906;2023-12-14T06:14:39;7.80;;;5.20;;
14892;SDS011;7538;53.626;9.906;2023-12-14T06:17:06;5.93;;;4.73;;
14892;SDS011;7538;53.626;9.906;2023-12-14T06:19:32;7.37;;;4.13;;
14892;SDS011;7538;53.626;9.906;2023-12-14T06:21:59;8.87;;;4.90;;
14892;SDS011;7538;53.626;9.906;2023-12-14T06:24:27;6.87;;;4.33;;
14892;SDS011;7538;53.626;9.906;2023-12-14T06:26:54;8.80;;;5.10;;
14892;SDS011;7538;53.626;9.906;2023-12-14T06:29:23;7.50;;;4.30;;
14892;SDS011;7538;53.626;9.906;2023-12-14T06:31:57;6.87;;;4.50;;
14892;SDS011;7538;53.626;9.906;2023-12-14T06:34:24;5.80;;;4.40;;
14892;SDS011;7538;53.626;9.906;2023-12-14T06:36:51;7.93;;;4.87;;
14892;SDS011;7538;53.626;9.906;2023-12-14T06:39:17;5.40;;;4.00;;
14892;SDS011;7538;53.626;9.906;2023-12-14T06:41:46;9.43;;;4.40;;
14892;SDS011;7538;53.626;9.906;2023-12-14T06:44:12;6.63;;;4.07;;
14892;SDS011;7538;53.626;9.906;2023-12-14T06:46:42;5.47;;;4.20;;
14892;SDS011;7538;53.626;9.906;2023-12-14T06:49:08;6.13;;;4.27;;
14892;SDS011;7538;53.626;9.906;2023-12-14T06:51:35;7.70;;;4.87;;
14892;SDS011;7538;53.626;9.906;2023-12-14T06:54:02;6.27;;;4.30;;
14892;SDS011;7538;53.626;9.906;2023-12-14T06:56:29;6.53;;;5.00;;
14892;SDS011;7538;53.626;9.906;2023-12-14T06:58:57;6.13;;;4.53;;
14892;SDS011;7538;53.626;9.906;2023-12-14T07:01:24;7.27;;;5.07;;
14892;SDS011;7538;53.626;9.906;2023-12-14T07:03:51;8.50;;;4.63;;
14892;SDS011;7538;53.626;9.906;2023-12-14T07:06:18;8.57;;;5.23;;
14892;SDS011;7538;53.626;9.906;2023-12-14T07:08:46;9.27;;;5.73;;
14892;SDS011;7538;53.626;9.906;2023-12-14T07:11:12;10.40;;;5.17;;
14892;SDS011;7538;53.626;9.906;2023-12-14T07:13:40;8.13;;;5.00;;
14892;SDS011;7538;53.626;9.906;2023-12-14T07:16:08;9.20;;;5.43;;
14892;SDS011;7538;53.626;9.906;2023-12-14T07:18:37;7.47;;;5.47;;
14892;SDS011;7538;53.626;9.906;2023-12-14T07:21:05;7.73;;;6.07;;
14892;SDS011;7538;53.626;9.906;2023-12-14T07:23:32;9.47;;;5.67;;
14892;SDS011;7538;53.626;9.906;2023-12-14T07:25:59;7.00;;;5.17;;
14892;SDS011;7538;53.626;9.906;2023-12-14T07:28:26;9.10;;;5.07;;
14892;SDS011;7538;53.626;9.906;2023-12-14T07:30:54;9.97;;;5.73;;
14892;SDS011;7538;53.626;9.906;2023-12-14T07:33:22;8.03;;;5.30;;
14892;SDS011;7538;53.626;9.906;2023-12-14T07:35:50;9.50;;;6.30;;
14892;SDS011;7538;53.626;9.906;2023-12-14T07:38:17;8.00;;;5.43;;
14892;SDS011;7538;53.626;9.906;2023-12-14T07:40:43;7.43;;;5.60;;
14892;SDS011;7538;53.626;9.906;2023-12-14T07:43:11;9.53;;;6.70;;
14892;SDS011;7538;53.626;9.906;2023-12-14T07:45:41;8.43;;;5.63;;
14892;SDS011;7538;53.626;9.906;2023-12-14T07:48:14;9.47;;;6.30;;
14892;SDS011;7538;53.626;9.906;2023-12-14T07:50:42;8.33;;;5.17;;
14892;SDS011;7538;53.626;9.906;2023-12-14T07:53:10;10.23;;;6.30;;
14892;SDS011;7538;53.626;9.906;2023-12-14T07:55:37;7.87;;;5.53;;
14892;SDS011;7538;53.626;9.906;2023-12-14T07:58:04;7.77;;;5.43;;
14892;SDS011;7538;53.626;9.906;2023-12-14T08:00:31;11.87;;;6.43;;
14892;SDS011;7538;53.626;9.906;2023-12-14T08:02:58;9.80;;;5.50;;
14892;SDS011;7538;53.626;9.906;2023-12-14T08:05:25;8.47;;;6.40;;
14892;SDS011;7538;53.626;9.906;2023-12-14T08:07:53;10.37;;;5.63;;
14892;SDS011;7538;53.626;9.906;2023-12-14T08:10:20;8.23;;;5.83;;
14892;SDS011;7538;53.626;9.906;2023-12-14T08:12:47;7.93;;;5.63;;
14892;SDS011;7538;53.626;9.906;2023-12-14T08:15:14;9.57;;;5.95;;
14892;SDS011;7538;53.626;9.906;2023-12-14T08:17:41;9.17;;;5.77;;
14892;SDS011;7538;53.626;9.906;2023-12-14T08:20:08;7.03;;;5.10;;
14892;SDS011;7538;53.626;9.906;2023-12-14T08:22:37;7.03;;;5.13;;
14892;SDS011;7538;53.626;9.906;2023-12-14T08:25:10;7.40;;;5.10;;
14892;SDS011;7538;53.626;9.906;2023-12-14T08:27:37;6.40;;;4.97;;
14892;SDS011;7538;53.626;9.906;2023-12-14T08:40:34;9.40;;;4.80;;
14892;SDS011;7538;53.626;9.906;2023-12-14T08:43:01;5.67;;;4.40;;
14892;SDS011;7538;53.626;9.906;2023-12-14T08:45:28;9.17;;;4.70;;
14892;SDS011;7538;53.626;9.906;2023-12-14T08:47:55;8.20;;;4.33;;
14892;SDS011;7538;53.626;9.906;2023-12-14T08:50:22;7.30;;;4.70;;
14892;SDS011;7538;53.626;9.906;2023-12-14T08:52:51;7.87;;;4.03;;
14892;SDS011;7538;53.626;9.906;2023-12-14T08:55:17;6.37;;;4.27;;
14892;SDS011;7538;53.626;9.906;2023-12-14T08:57:46;7.43;;;5.40;;
14892;SDS011;7538;53.626;9.906;2023-12-14T09:00:13;8.97;;;5.33;;
14892;SDS011;7538;53.626;9.906;2023-12-14T09:02:41;6.97;;;5.53;;
14892;SDS011;7538;53.626;9.906;2023-12-14T09:05:09;8.73;;;5.13;;
14892;SDS011;7538;53.626;9.906;2023-12-14T09:07:35;5.80;;;4.50;;
14892;SDS011;7538;53.626;9.906;2023-12-14T09:10:02;8.17;;;5.07;;
14892;SDS011;7538;53.626;9.906;2023-12-14T09:12:29;10.07;;;5.23;;
14892;SDS011;7538;53.626;9.906;2023-12-14T09:14:57;7.97;;;4.87;;
14892;SDS011;7538;53.626;9.906;2023-12-14T09:17:24;6.50;;;4.43;;
14892;SDS011;7538;53.626;9.906;2023-12-14T09:19:51;5.40;;;4.53;;
14892;SDS011;7538;53.626;9.906;2023-12-14T09:22:18;6.03;;;4.60;;
14892;SDS011;7538;53.626;9.906;2023-12-14T09:24:44;7.70;;;5.00;;
14892;SDS011;7538;53.626;9.906;2023-12-14T09:27:11;5.53;;;4.03;;
14892;SDS011;7538;53.626;9.906;2023-12-14T09:29:38;7.93;;;4.70;;
14892;SDS011;7538;53.626;9.906;2023-12-14T09:32:06;6.27;;;4.20;;
14892;SDS011;7538;53.626;9.906;2023-12-14T09:34:34;4.90;;;4.23;;
14892;SDS011;7538;53.626;9.906;2023-12-14T09:37:00;4.67;;;3.97;;
14892;SDS011;7538;53.626;9.906;2023-12-14T09:39:27;6.37;;;4.10;;
14892;SDS011;7538;53.626;9.906;2023-12-14T09:42:00;8.27;;;5.38;;
14892;SDS011;7538;53.626;9.906;2023-12-14T09:44:29;6.47;;;4.40;;
14892;SDS011;7538;53.626;9.906;2023-12-14T09:46:57;6.80;;;4.80;;
14892;SDS011;7538;53.626;9.906;2023-12-14T09:49:27;5.87;;;4.50;;
14892;SDS011;7538;53.626;9.906;2023-12-14T09:51:55;6.03;;;4.33;;
14892;SDS011;7538;53.626;9.906;2023-12-14T09:54:23;7.07;;;4.37;;
14892;SDS011;7538;53.626;9.906;2023-12-14T09:56:49;7.07;;;5.13;;
14892;SDS011;7538;53.626;9.906;2023-12-14T09:59:17;7.07;;;4.70;;
14892;SDS011;7538;53.626;9.906;2023-12-14T10:01:44;7.20;;;4.57;;
14892;SDS011;7538;53.626;9.906;2023-12-14T10:04:11;8.97;;;4.90;;
14892;SDS011;7538;53.626;9.906;2023-12-14T10:06:41;11.80;;;5.17;;
14892;SDS011;7538;53.626;9.906;2023-12-14T10:09:09;5.70;;;4.60;;
14892;SDS011;7538;53.626;9.906;2023-12-14T10:11:38;6.20;;;4.33;;
14892;SDS011;7538;53.626;9.906;2023-12-14T10:14:13;7.67;;;5.10;;
14892;SDS011;7538;53.626;9.906;2023-12-14T10:16:44;7.20;;;4.37;;
14892;SDS011;7538;53.626;9.906;2023-12-14T10:19:11;7.03;;;4.65;;
14892;SDS011;7538;53.626;9.906;2023-12-14T10:21:38;6.20;;;4.47;;
14892;SDS011;7538;53.626;9.906;2023-12-14T10:24:07;5.40;;;4.03;;
14892;SDS011;7538;53.626;9.906;2023-12-14T10:26:34;7.60;;;4.10;;
14892;SDS011;7538;53.626;9.906;2023-12-14T10:29:01;7.57;;;5.20;;
14892;SDS011;7538;53.626;9.906;2023-12-14T10:31:32;5.10;;;4.53;;
14892;SDS011;7538;53.626;9.906;2023-12-14T10:34:07;6.93;;;3.90;;
14892;SDS011;7538;53.626;9.906;2023-12-14T10:36:37;7.43;;;4.83;;
14892;SDS011;7538;53.626;9.906;2023-12-14T10:39:04;6.20;;;4.30;;
14892;SDS011;7538;53.626;9.906;2023-12-14T10:41:34;5.80;;;4.17;;
14892;SDS011;7538;53.626;9.906;2023-12-14T10:44:03;5.97;;;3.70;;
14892;SDS011;7538;53.626;9.906;2023-12-14T10:46:31;6.83;;;4.10;;
14892;SDS011;7538;53.626;9.906;2023-12-14T10:48:59;6.00;;;4.50;;
14892;SDS011;7538;53.626;9.906;2023-12-14T10:51:27;8.77;;;5.00;;
14892;SDS011;7538;53.626;9.906;2023-12-14T10:53:55;7.03;;;4.83;;
14892;SDS011;7538;53.626;9.906;2023-12-14T10:56:22;6.80;;;4.60;;
14892;SDS011;7538;53.626;9.906;2023-12-14T10:58:52;6.03;;;4.30;;
14892;SDS011;7538;53.626;9.906;2023-12-14T11:01:20;6.67;;;4.37;;
14892;SDS011;7538;53.626;9.906;2023-12-14T11:04:02;7.72;;;4.70;;
14892;SDS011;7538;53.626;9.906;2023-12-14T11:06:31;6.73;;;4.70;;
14892;SDS011;7538;53.626;9.906;2023-12-14T11:09:00;5.83;;;3.67;;
14892;SDS011;7538;53.626;9.906;2023-12-14T11:11:31;7.70;;;4.30;;
14892;SDS011;7538;53.626;9.906;2023-12-14T11:14:10;6.47;;;4.40;;
14892;SDS011;7538;53.626;9.906;2023-12-14T11:16:38;5.13;;;4.07;;
14892;SDS011;7538;53.626;9.906;2023-12-14T11:19:25;6.57;;;3.93;;
14892;SDS011;7538;53.626;9.906;2023-12-14T11:22:13;5.63;;;4.50;;
14892;SDS011;7538;53.626;9.906;2023-12-14T11:24:50;5.87;;;4.13;;
14892;SDS011;7538;53.626;9.906;2023-12-14T11:27:20;7.07;;;4.90;;
14892;SDS011;7538;53.626;9.906;2023-12-14T11:29:52;5.10;;;4.10;;
14892;SDS011;7538;53.626;9.906;2023-12-14T11:32:19;5.67;;;4.50;;
14892;SDS011;7538;53.626;9.906;2023-12-14T11:34:46;5.17;;;4.37;;
14892;SDS011;7538;53.626;9.906;2023-12-14T11:37:13;5.93;;;4.23;;
14892;SDS011;7538;53.626;9.906;2023-12-14T11:39:40;9.77;;;6.53;;
14892;SDS011;7538;53.626;9.906;2023-12-14T11:42:09;8.83;;;6.77;;
14892;SDS011;7538;53.626;9.906;2023-12-14T11:44:36;8.67;;;6.37;;
14892;SDS011;7538;53.626;9.906;2023-12-14T11:47:04;7.20;;;5.80;;
14892;SDS011;7538;53.626;9.906;2023-12-14T11:49:31;9.73;;;6.07;;
14892;SDS011;7538;53.626;9.906;2023-12-14T11:52:01;8.00;;;5.47;;
14892;SDS011;7538;53.626;9.906;2023-12-14T11:54:29;6.50;;;5.15;;
14892;SDS011;7538;53.626;9.906;2023-12-14T11:56:56;6.75;;;4.85;;
14892;SDS011;7538;53.626;9.906;2023-12-14T11:59:23;6.47;;;5.50;;
14892;SDS011;7538;53.626;9.906;2023-12-14T12:01:56;7.57;;;5.33;;
14892;SDS011;7538;53.626;9.906;2023-12-14T12:04:25;6.50;;;4.67;;
14892;SDS011;7538;53.626;9.906;2023-12-14T12:07:00;6.13;;;5.03;;
14892;SDS011;7538;53.626;9.906;2023-12-14T12:09:37;5.50;;;4.37;;
14892;SDS011;7538;53.626;9.906;2023-12-14T12:12:07;7.63;;;4.70;;
14892;SDS011;7538;53.626;9.906;2023-12-14T12:14:34;6.63;;;4.67;;
14892;SDS011;7538;53.626;9.906;2023-12-14T12:17:00;6.87;;;4.80;;
14892;SDS011;7538;53.626;9.906;2023-12-14T12:19:30;7.80;;;4.77;;
14892;SDS011;7538;53.626;9.906;2023-12-14T12:21:58;7.60;;;5.27;;
14892;SDS011;7538;53.626;9.906;2023-12-14T12:24:25;7.73;;;5.33;;
14892;SDS011;7538;53.626;9.906;2023-12-14T12:26:52;8.27;;;5.27;;
14892;SDS011;7538;53.626;9.906;2023-12-14T12:29:19;7.93;;;5.43;;
14892;SDS011;7538;53.626;9.906;2023-12-14T12:31:45;7.53;;;5.07;;
14892;SDS011;7538;53.626;9.906;2023-12-14T12:34:12;7.77;;;4.93;;
14892;SDS011;7538;53.626;9.906;2023-12-14T12:36:40;8.95;;;5.68;;
14892;SDS011;7538;53.626;9.906;2023-12-14T12:39:07;6.30;;;4.37;;
14892;SDS011;7538;53.626;9.906;2023-12-14T12:41:34;6.80;;;5.23;;
14892;SDS011;7538;53.626;9.906;2023-12-14T12:44:02;7.17;;;5.20;;
14892;SDS011;7538;53.626;9.906;2023-12-14T12:46:31;6.80;;;5.37;;
14892;SDS011;7538;53.626;9.906;2023-12-14T12:51:55;11.80;;;6.10;;
14892;SDS011;7538;53.626;9.906;2023-12-14T12:54:21;9.02;;;5.43;;
14892;SDS011;7538;53.626;9.906;2023-12-14T12:56:48;6.93;;;5.43;;
14892;SDS011;7538;53.626;9.906;2023-12-14T12:59:15;6.83;;;4.27;;
14892;SDS011;7538;53.626;9.906;2023-12-14T13:01:42;5.90;;;4.37;;
14892;SDS011;7538;53.626;9.906;2023-12-14T13:04:17;7.47;;;5.33;;
14892;SDS011;7538;53.626;9.906;2023-12-14T13:06:44;9.43;;;5.23;;
14892;SDS011;7538;53.626;9.906;2023-12-14T13:09:13;7.20;;;5.27;;
14892;SDS011;7538;53.626;9.906;2023-12-14T13:11:41;5.73;;;4.50;;
14892;SDS011;7538;53.626;9.906;2023-12-14T13:14:08;5.77;;;4.67;;
14892;SDS011;7538;53.626;9.906;2023-12-14T13:16:35;8.35;;;5.43;;
14892;SDS011;7538;53.626;9.906;2023-12-14T13:19:02;6.73;;;5.50;;
14892;SDS011;7538;53.626;9.906;2023-12-14T13:21:29;9.07;;;5.90;;
14892;SDS011;7538;53.626;9.906;2023-12-14T13:23:56;7.10;;;5.10;;
14892;SDS011;7538;53.626;9.906;2023-12-14T13:26:24;9.17;;;5.53;;
14892;SDS011;7538;53.626;9.906;2023-12-14T13:28:51;7.60;;;5.07;;
14892;SDS011;7538;53.626;9.906;2023-12-14T13:31:18;8.10;;;4.93;;
14892;SDS011;7538;53.626;9.906;2023-12-14T13:33:46;7.07;;;5.00;;
14892;SDS011;7538;53.626;9.906;2023-12-14T13:36:13;6.00;;;4.83;;
14892;SDS011;7538;53.626;9.906;2023-12-14T13:38:40;6.23;;;5.30;;
14892;SDS011;7538;53.626;9.906;2023-12-14T13:41:08;6.53;;;4.20;;
14892;SDS011;7538;53.626;9.906;2023-12-14T13:43:36;6.83;;;4.60;;
14892;SDS011;7538;53.626;9.906;2023-12-14T13:46:03;5.93;;;4.97;;
14892;SDS011;7538;53.626;9.906;2023-12-14T13:48:30;7.20;;;5.60;;
14892;SDS011;7538;53.626;9.906;2023-12-14T13:51:09;6.83;;;5.00;;
14892;SDS011;7538;53.626;9.906;2023-12-14T13:56:22;7.90;;;5.47;;
14892;SDS011;7538;53.626;9.906;2023-12-14T13:58:51;10.33;;;5.90;;
14892;SDS011;7538;53.626;9.906;2023-12-14T14:01:17;8.37;;;6.07;;
14892;SDS011;7538;53.626;9.906;2023-12-14T14:03:44;6.90;;;4.57;;
14892;SDS011;7538;53.626;9.906;2023-12-14T14:06:11;9.03;;;5.13;;
14892;SDS011;7538;53.626;9.906;2023-12-14T14:08:39;7.43;;;5.03;;
14892;SDS011;7538;53.626;9.906;2023-12-14T14:11:05;6.90;;;4.90;;
14892;SDS011;7538;53.626;9.906;2023-12-14T14:13:32;6.43;;;4.97;;
14892;SDS011;7538;53.626;9.906;2023-12-14T14:16:00;6.87;;;5.27;;
14892;SDS011;7538;53.626;9.906;2023-12-14T14:18:29;7.00;;;5.17;;
14892;SDS011;7538;53.626;9.906;2023-12-14T14:20:56;7.30;;;5.13;;
14892;SDS011;7538;53.626;9.906;2023-12-14T14:23:23;9.17;;;5.40;;
14892;SDS011;7538;53.626;9.906;2023-12-14T14:25:50;7.47;;;6.20;;
14892;SDS011;7538;53.626;9.906;2023-12-14T14:28:18;9.63;;;6.27;;
14892;SDS011;7538;53.626;9.906;2023-12-14T14:30:45;8.40;;;5.87;;
14892;SDS011;7538;53.626;9.906;2023-12-14T14:33:14;7.70;;;5.77;;
14892;SDS011;7538;53.626;9.906;2023-12-14T14:35:43;5.63;;;4.47;;
14892;SDS011;7538;53.626;9.906;2023-12-14T14:38:10;6.27;;;4.70;;
14892;SDS011;7538;53.626;9.906;2023-12-14T14:40:36;7.30;;;5.53;;
14892;SDS011;7538;53.626;9.906;2023-12-14T14:43:03;6.37;;;4.77;;
14892;SDS011;7538;53.626;9.906;2023-12-14T14:45:30;6.47;;;5.03;;
14892;SDS011;7538;53.626;9.906;2023-12-14T14:47:57;8.57;;;5.13;;
14892;SDS011;7538;53.626;9.906;2023-12-14T14:50:25;5.30;;;4.43;;
14892;SDS011;7538;53.626;9.906;2023-12-14T14:52:52;6.63;;;5.17;;
14892;SDS011;7538;53.626;9.906;2023-12-14T14:55:18;6.67;;;5.07;;
14892;SDS011;7538;53.626;9.906;2023-12-14T14:57:46;6.07;;;4.83;;
14892;SDS011;7538;53.626;9.906;2023-12-14T15:00:13;7.57;;;4.77;;
14892;SDS011;7538;53.626;9.906;2023-12-14T15:02:41;6.23;;;4.83;;
14892;SDS011;7538;53.626;9.906;2023-12-14T15:05:08;7.43;;;4.67;;
14892;SDS011;7538;53.626;9.906;2023-12-14T15:07:37;6.27;;;4.60;;
14892;SDS011;7538;53.626;9.906;2023-12-14T15:10:04;8.17;;;4.77;;
14892;SDS011;7538;53.626;9.906;2023-12-14T15:12:31;5.80;;;5.13;;
14892;SDS011;7538;53.626;9.906;2023-12-14T15:14:58;7.30;;;5.63;;
14892;SDS011;7538;53.626;9.906;2023-12-14T15:17:25;9.30;;;6.20;;
14892;SDS011;7538;53.626;9.906;2023-12-14T15:19:52;8.17;;;5.60;;